createdAt,value
2019-03-03T00:01:54.782Z,94.40
2019-03-03T00:04:25.025Z,94.50
2019-03-03T00:06:55.310Z,94.40
2019-03-03T00:09:25.600Z,94.40
2019-03-03T00:11:55.875Z,94.50
2019-03-03T00:14:26.181Z,94.50
2019-03-03T00:16:56.466Z,94.40
2019-03-03T00:19:27.245Z,94.40
2019-03-03T00:21:57.461Z,94.50
2019-03-03T00:24:28.911Z,94.50
2019-03-03T00:26:59.178Z,94.60
2019-03-03T00:29:29.534Z,94.70
2019-03-03T00:31:59.764Z,94.80
2019-03-03T00:34:30.207Z,94.90
2019-03-03T00:37:02.053Z,94.90
2019-03-03T00:39:42.904Z,94.90
2019-03-03T00:42:24.425Z,95.00
2019-03-03T00:44:56.354Z,95.00
2019-03-03T00:47:28.198Z,95.00
2019-03-03T00:50:00.738Z,95.00
2019-03-03T00:52:41.625Z,95.10
2019-03-03T00:55:19.487Z,95.10
2019-03-03T00:57:54.569Z,95.10
2019-03-03T01:00:36.655Z,95.20
2019-03-03T01:03:08.497Z,95.20
2019-03-03T01:05:52.859Z,95.20
2019-03-03T01:08:31.477Z,95.30
2019-03-03T01:11:09.028Z,95.30
2019-03-03T01:13:47.199Z,95.40
2019-03-03T01:16:37.189Z,95.50
2019-03-03T01:19:18.165Z,95.40
2019-03-03T01:21:50.084Z,95.50
2019-03-03T01:24:34.590Z,95.40
2019-03-03T01:27:05.055Z,95.50
2019-03-03T01:29:35.295Z,95.50
2019-03-03T01:32:05.836Z,95.40
2019-03-03T01:34:36.048Z,95.60
2019-03-03T01:37:06.386Z,95.60
2019-03-03T01:39:36.668Z,95.90
2019-03-03T01:42:06.996Z,95.60
2019-03-03T01:44:37.704Z,95.70
2019-03-03T01:47:08.048Z,95.70
2019-03-03T01:49:38.256Z,95.70
2019-03-03T01:52:08.602Z,96.00
2019-03-03T01:54:38.880Z,95.70
2019-03-03T01:57:09.229Z,95.70
2019-03-03T01:59:39.512Z,95.70
2019-03-03T02:02:09.878Z,95.60
2019-03-03T02:04:40.084Z,95.60
2019-03-03T02:07:10.730Z,95.60
2019-03-03T02:09:40.995Z,95.60
2019-03-03T02:12:11.308Z,95.50
2019-03-03T02:14:41.579Z,95.50
2019-03-03T02:17:12.620Z,95.50
2019-03-03T02:19:43.902Z,95.40
2019-03-03T02:22:14.254Z,95.30
2019-03-03T02:24:44.489Z,95.30
2019-03-03T02:27:14.800Z,95.30
2019-03-03T02:29:46.465Z,95.20
2019-03-03T02:32:16.809Z,95.20
2019-03-03T02:34:47.094Z,95.10
2019-03-03T02:37:17.310Z,95.10
2019-03-03T02:39:47.496Z,95.10
2019-03-03T02:42:17.812Z,95.10
2019-03-03T02:44:48.083Z,95.00
2019-03-03T02:47:18.303Z,95.10
2019-03-03T02:49:49.593Z,95.00
2019-03-03T02:52:19.915Z,95.00
2019-03-03T02:54:50.176Z,95.00
2019-03-03T02:57:20.465Z,95.00
2019-03-03T02:59:50.755Z,95.00
2019-03-03T03:02:39.017Z,95.00
2019-03-03T03:05:10.367Z,95.00
2019-03-03T03:07:47.802Z,94.80
2019-03-03T03:10:20.170Z,94.80
2019-03-03T03:13:00.592Z,94.90
2019-03-03T03:15:33.154Z,94.90
2019-03-03T03:18:14.757Z,94.90
2019-03-03T03:21:02.765Z,94.90
2019-03-03T03:23:40.429Z,94.80
2019-03-03T03:26:28.611Z,94.90
2019-03-03T03:29:16.633Z,94.90
2019-03-03T03:32:00.869Z,94.90
2019-03-03T03:34:44.929Z,95.10
2019-03-03T03:37:19.977Z,95.10
2019-03-03T03:39:54.659Z,95.20
2019-03-03T03:42:26.526Z,95.20
2019-03-03T03:45:14.852Z,95.30
2019-03-03T03:47:49.402Z,95.40
2019-03-03T03:50:30.793Z,95.40
2019-03-03T03:53:11.408Z,95.80
2019-03-03T03:55:49.209Z,95.40
2019-03-03T03:58:21.244Z,95.50
2019-03-03T04:01:02.339Z,95.50
2019-03-03T04:03:41.769Z,95.50
2019-03-03T04:06:13.691Z,95.60
2019-03-03T04:09:01.981Z,95.50
2019-03-03T04:11:35.613Z,95.60
2019-03-03T04:14:20.829Z,95.50
2019-03-03T04:16:52.752Z,95.50
2019-03-03T04:19:24.610Z,95.50
2019-03-03T04:21:57.038Z,95.50
2019-03-03T04:24:43.825Z,95.60
2019-03-03T04:27:15.756Z,95.60
2019-03-03T04:29:53.300Z,95.50
2019-03-03T04:32:28.221Z,95.50
2019-03-03T04:35:00.117Z,95.50
2019-03-03T04:37:44.236Z,95.90
2019-03-03T04:40:15.321Z,95.40
2019-03-03T04:42:47.040Z,95.50
2019-03-03T04:45:33.810Z,95.40
2019-03-03T04:48:10.545Z,95.40
2019-03-03T04:50:42.464Z,95.40
2019-03-03T04:53:14.382Z,95.50
2019-03-03T04:55:52.235Z,95.40
2019-03-03T04:58:42.356Z,95.40
2019-03-03T05:01:26.304Z,95.40
2019-03-03T05:04:06.270Z,95.30
2019-03-03T05:06:43.560Z,95.30
2019-03-03T05:09:30.749Z,95.30
2019-03-03T05:12:08.219Z,95.30
2019-03-03T05:14:44.221Z,95.30
2019-03-03T05:17:18.951Z,95.40
2019-03-03T05:19:51.406Z,95.40
2019-03-03T05:22:21.608Z,95.40
2019-03-03T05:24:52.033Z,95.40
2019-03-03T05:27:22.231Z,95.50
2019-03-03T05:29:53.026Z,95.50
2019-03-03T05:32:23.295Z,95.70
2019-03-03T05:34:53.756Z,95.70
2019-03-03T05:37:25.654Z,95.90
2019-03-03T05:39:56.041Z,96.10
2019-03-03T05:42:26.315Z,96.30
2019-03-03T05:44:56.668Z,96.40
2019-03-03T05:47:27.219Z,96.50
2019-03-03T05:49:57.548Z,96.70
2019-03-03T05:52:27.832Z,96.80
2019-03-03T05:54:58.341Z,96.80
2019-03-03T05:57:28.768Z,96.90
2019-03-03T06:00:06.434Z,97.10
2019-03-03T06:02:36.813Z,97.40
2019-03-03T06:05:09.080Z,97.60
2019-03-03T06:07:39.325Z,98.00
2019-03-03T06:10:10.352Z,98.20
2019-03-03T06:12:41.106Z,98.30
2019-03-03T06:15:14.304Z,98.40
2019-03-03T06:17:44.643Z,98.40
2019-03-03T06:20:16.460Z,98.50
2019-03-03T06:22:46.737Z,98.60
2019-03-03T06:25:17.096Z,98.60
2019-03-03T06:27:47.357Z,98.50
2019-03-03T06:30:17.651Z,98.40
2019-03-03T06:32:57.696Z,98.40
2019-03-03T06:35:29.264Z,98.60
2019-03-03T06:37:59.554Z,98.50
2019-03-03T06:41:08.904Z,98.50
2019-03-03T06:43:32.573Z,98.40
2019-03-03T06:46:03.038Z,98.30
2019-03-03T06:48:33.403Z,98.00
2019-03-03T06:51:03.720Z,97.90
2019-03-03T06:53:34.005Z,97.80
2019-03-03T06:56:04.441Z,97.80
2019-03-03T06:58:39.598Z,97.70
2019-03-03T07:01:09.026Z,97.50
2019-03-03T07:03:39.104Z,97.30
2019-03-03T07:06:09.554Z,97.00
2019-03-03T07:08:41.692Z,96.80
2019-03-03T07:11:11.916Z,96.30
2019-03-03T07:13:42.180Z,96.20
2019-03-03T07:16:13.338Z,96.20
2019-03-03T07:18:43.535Z,95.90
2019-03-03T07:21:13.910Z,95.60
2019-03-03T07:23:44.064Z,95.50
2019-03-03T07:26:15.091Z,95.50
2019-03-03T07:28:45.383Z,95.40
2019-03-03T07:31:15.765Z,95.00
2019-03-03T07:33:46.618Z,94.70
2019-03-03T07:36:16.973Z,94.50
2019-03-03T07:38:47.320Z,94.40
2019-03-03T07:41:17.680Z,94.30
2019-03-03T07:43:47.952Z,94.50
2019-03-03T07:46:18.322Z,94.00
2019-03-03T07:48:48.551Z,93.70
2019-03-03T07:51:18.880Z,93.60
2019-03-03T07:53:52.183Z,93.40
2019-03-03T07:56:22.627Z,93.30
2019-03-03T07:58:52.891Z,93.30
2019-03-03T08:01:23.236Z,93.30
2019-03-03T08:03:53.532Z,93.10
2019-03-03T08:06:23.890Z,93.00
2019-03-03T08:08:54.105Z,92.70
2019-03-03T08:11:24.644Z,92.50
2019-03-03T08:13:55.024Z,92.20
2019-03-03T08:16:25.930Z,92.10
2019-03-03T08:18:56.236Z,92.10
2019-03-03T08:21:26.563Z,92.20
2019-03-03T08:23:56.874Z,91.50
2019-03-03T08:26:27.640Z,91.20
2019-03-03T08:28:57.832Z,90.20
2019-03-03T08:31:28.294Z,90.00
2019-03-03T08:33:58.546Z,89.70
2019-03-03T08:36:28.904Z,89.50
2019-03-03T08:38:59.367Z,88.40
2019-03-03T08:41:30.007Z,88.60
2019-03-03T08:44:01.872Z,88.20
2019-03-03T08:46:33.711Z,87.70
2019-03-03T08:49:15.589Z,87.80
2019-03-03T08:52:03.981Z,86.70
2019-03-03T08:54:35.962Z,86.70
2019-03-03T08:57:07.812Z,85.80
2019-03-03T08:59:45.574Z,84.60
2019-03-03T09:02:20.437Z,83.20
2019-03-03T09:04:52.336Z,81.30
2019-03-03T09:07:33.335Z,81.40
2019-03-03T09:10:25.044Z,81.30
2019-03-03T09:12:48.673Z,81.10
2019-03-03T09:15:36.982Z,79.60
2019-03-03T09:18:14.847Z,78.90
2019-03-03T09:20:49.340Z,79.20
2019-03-03T09:23:24.074Z,78.30
2019-03-03T09:26:12.475Z,79.70
2019-03-03T09:28:47.090Z,79.20
2019-03-03T09:31:19.034Z,78.90
2019-03-03T09:33:50.878Z,78.40
2019-03-03T09:36:39.457Z,80.50
2019-03-03T09:39:26.685Z,79.60
2019-03-03T09:42:07.523Z,79.20
2019-03-03T09:44:45.569Z,80.00
2019-03-03T09:47:34.210Z,80.30
2019-03-03T09:50:13.924Z,79.40
2019-03-03T09:53:01.083Z,79.60
2019-03-03T09:55:32.933Z,79.30
2019-03-03T09:58:04.839Z,79.60
2019-03-03T10:00:36.690Z,78.60
2019-03-03T10:03:09.317Z,78.20
2019-03-03T10:05:47.019Z,77.00
2019-03-03T10:08:18.961Z,77.70
2019-03-03T10:10:56.624Z,77.90
2019-03-03T10:13:28.550Z,77.10
2019-03-03T10:16:03.033Z,77.50
2019-03-03T10:18:37.758Z,76.50
2019-03-03T10:21:15.667Z,76.40
2019-03-03T10:23:47.539Z,75.10
2019-03-03T10:26:35.988Z,76.00
2019-03-03T10:29:22.989Z,76.10
2019-03-03T10:32:06.963Z,77.10
2019-03-03T10:34:38.032Z,76.70
2019-03-03T10:37:09.717Z,74.60
2019-03-03T10:39:44.171Z,73.90
2019-03-03T10:42:18.916Z,72.80
2019-03-03T10:44:50.807Z,72.80
2019-03-03T10:47:22.649Z,71.80
2019-03-03T10:50:10.853Z,72.10
2019-03-03T10:52:42.692Z,74.10
2019-03-03T10:55:31.084Z,74.80
2019-03-03T10:58:03.025Z,74.90
2019-03-03T11:00:34.909Z,75.70
2019-03-03T11:03:15.804Z,77.10
2019-03-03T11:05:47.735Z,77.20
2019-03-03T11:08:31.585Z,77.60
2019-03-03T11:11:06.431Z,76.50
2019-03-03T11:13:38.367Z,77.60
2019-03-03T11:16:13.646Z,76.60
2019-03-03T11:18:55.780Z,77.00
2019-03-03T11:21:27.478Z,77.60
2019-03-03T11:24:02.061Z,76.60
2019-03-03T11:26:39.862Z,75.50
2019-03-03T11:29:11.698Z,76.70
2019-03-03T11:31:49.803Z,76.30
2019-03-03T11:34:30.471Z,75.90
2019-03-03T11:37:18.631Z,74.70
2019-03-03T11:39:56.573Z,75.40
2019-03-03T11:42:46.501Z,75.30
2019-03-03T11:45:34.961Z,76.60
2019-03-03T11:48:22.171Z,76.60
2019-03-03T11:50:59.948Z,77.90
2019-03-03T11:53:31.860Z,77.20
2019-03-03T11:56:03.689Z,77.80
2019-03-03T11:58:35.641Z,77.70
2019-03-03T12:01:20.429Z,78.00
2019-03-03T12:03:52.352Z,77.50
2019-03-03T12:06:26.818Z,77.40
2019-03-03T12:08:59.201Z,78.30
2019-03-03T12:11:31.024Z,77.30
2019-03-03T12:14:02.936Z,76.70
2019-03-03T12:16:34.887Z,76.50
2019-03-03T12:19:10.061Z,75.60
2019-03-03T12:21:48.082Z,75.40
2019-03-03T12:24:19.959Z,74.40
2019-03-03T12:27:03.750Z,74.20
2019-03-03T12:29:36.305Z,74.10
2019-03-03T12:32:26.666Z,74.80
2019-03-03T12:34:58.505Z,75.10
2019-03-03T12:37:39.448Z,74.40
2019-03-03T12:40:16.357Z,74.20
2019-03-03T12:42:58.501Z,74.00
2019-03-03T12:45:31.081Z,72.40
2019-03-03T12:48:15.351Z,73.70
2019-03-03T12:50:50.031Z,74.00
2019-03-03T12:53:21.956Z,74.10
2019-03-03T12:55:58.484Z,73.40
2019-03-03T12:58:36.377Z,73.40
2019-03-03T13:01:08.527Z,72.80
2019-03-03T13:03:43.451Z,73.10
2019-03-03T13:06:30.512Z,73.70
2019-03-03T13:09:20.253Z,73.90
2019-03-03T13:12:04.182Z,73.90
2019-03-03T13:14:44.828Z,74.00
2019-03-03T13:17:19.929Z,73.70
2019-03-03T13:19:58.401Z,73.20
2019-03-03T13:22:30.309Z,73.20
2019-03-03T13:25:18.553Z,74.40
2019-03-03T13:27:50.458Z,74.40
2019-03-03T13:30:22.847Z,74.40
2019-03-03T13:33:06.992Z,73.80
2019-03-03T13:35:57.279Z,73.80
2019-03-03T13:38:45.339Z,73.80
2019-03-03T13:41:33.580Z,74.20
2019-03-03T13:44:03.932Z,74.60
2019-03-03T13:46:34.252Z,73.40
2019-03-03T13:49:04.692Z,72.50
2019-03-03T13:51:34.970Z,72.80
2019-03-03T13:54:06.546Z,72.60
2019-03-03T13:56:37.006Z,72.00
2019-03-03T13:59:07.720Z,71.80
2019-03-03T14:01:38.140Z,72.00
2019-03-03T14:04:08.588Z,71.50
2019-03-03T14:06:38.904Z,71.70
2019-03-03T14:09:09.815Z,71.30
2019-03-03T14:11:40.119Z,71.80
2019-03-03T14:14:11.205Z,72.30
2019-03-03T14:16:41.422Z,72.80
2019-03-03T14:19:11.879Z,72.50
2019-03-03T14:21:42.203Z,72.40
2019-03-03T14:24:12.542Z,72.80
2019-03-03T14:26:42.944Z,73.20
2019-03-03T14:29:13.220Z,73.70
2019-03-03T14:31:43.536Z,73.30
2019-03-03T14:34:14.362Z,74.10
2019-03-03T14:36:44.655Z,74.50
2019-03-03T14:39:15.197Z,74.70
2019-03-03T14:41:45.483Z,74.90
2019-03-03T14:44:18.489Z,75.20
2019-03-03T14:46:48.717Z,75.30
2019-03-03T14:49:19.045Z,75.00
2019-03-03T14:51:49.294Z,75.30
2019-03-03T14:54:19.585Z,75.30
2019-03-03T14:56:49.863Z,75.40
2019-03-03T14:59:20.198Z,75.30
2019-03-03T15:01:50.391Z,76.20
2019-03-03T15:04:20.659Z,75.40
2019-03-03T15:06:50.857Z,75.40
2019-03-03T15:09:21.847Z,75.70
2019-03-03T15:11:52.113Z,75.80
2019-03-03T15:14:23.054Z,75.70
2019-03-03T15:16:54.307Z,75.10
2019-03-03T15:19:24.692Z,75.10
2019-03-03T15:21:54.956Z,75.30
2019-03-03T15:24:25.310Z,75.40
2019-03-03T15:26:55.601Z,75.70
2019-03-03T15:29:25.944Z,75.70
2019-03-03T15:31:56.224Z,76.30
2019-03-03T15:34:26.500Z,76.90
2019-03-03T15:36:58.404Z,77.00
2019-03-03T15:39:28.747Z,77.20
2019-03-03T15:41:58.942Z,77.10
2019-03-03T15:44:30.276Z,77.00
2019-03-03T15:47:00.681Z,77.50
2019-03-03T15:49:31.096Z,76.90
2019-03-03T15:52:01.356Z,77.10
2019-03-03T15:54:31.812Z,77.40
2019-03-03T15:57:02.641Z,77.60
2019-03-03T15:59:33.014Z,77.20
2019-03-03T16:02:03.373Z,77.10
2019-03-03T16:04:34.278Z,77.40
2019-03-03T16:07:04.602Z,76.90
2019-03-03T16:09:35.088Z,76.80
2019-03-03T16:12:05.543Z,75.70
2019-03-03T16:14:35.886Z,76.00
2019-03-03T16:17:06.259Z,76.40
2019-03-03T16:19:36.595Z,77.40
2019-03-03T16:22:06.985Z,76.80
2019-03-03T16:24:37.185Z,77.70
2019-03-03T16:27:08.562Z,77.70
2019-03-03T16:29:39.712Z,77.80
2019-03-03T16:32:10.673Z,78.00
2019-03-03T16:34:40.916Z,78.10
2019-03-03T16:37:11.229Z,78.60
2019-03-03T16:39:41.500Z,79.00
2019-03-03T16:42:11.803Z,79.50
2019-03-03T16:44:42.080Z,79.80
2019-03-03T16:47:12.407Z,81.10
2019-03-03T16:49:42.677Z,81.30
2019-03-03T16:52:19.804Z,82.10
2019-03-03T16:54:50.045Z,81.20
2019-03-03T16:57:20.358Z,81.80
2019-03-03T16:59:50.639Z,82.30
2019-03-03T17:02:21.416Z,83.00
2019-03-03T17:04:51.585Z,83.80
2019-03-03T17:07:21.969Z,83.90
2019-03-03T17:09:52.272Z,84.00
2019-03-03T17:12:22.611Z,83.50
2019-03-03T17:14:52.941Z,83.20
2019-03-03T17:17:23.211Z,84.30
2019-03-03T17:19:53.536Z,84.30
2019-03-03T17:22:24.394Z,83.90
2019-03-03T17:24:54.822Z,84.40
2019-03-03T17:27:25.097Z,84.70
2019-03-03T17:29:55.322Z,84.60
2019-03-03T17:32:25.589Z,86.60
2019-03-03T17:34:56.609Z,86.40
2019-03-03T17:37:26.926Z,86.80
2019-03-03T17:39:57.181Z,87.90
2019-03-03T17:42:27.546Z,88.00
2019-03-03T17:44:57.909Z,88.60
2019-03-03T17:47:28.189Z,89.00
2019-03-03T17:49:58.527Z,89.10
2019-03-03T17:52:28.703Z,88.60
2019-03-03T17:54:58.982Z,88.40
2019-03-03T17:57:29.266Z,87.50
2019-03-03T17:59:59.783Z,87.10
2019-03-03T18:02:30.055Z,86.30
2019-03-03T18:05:00.434Z,86.50
2019-03-03T18:07:30.769Z,86.20
2019-03-03T18:10:01.036Z,85.80
2019-03-03T18:12:31.407Z,85.90
2019-03-03T18:15:01.716Z,85.40
2019-03-03T18:17:33.205Z,85.60
2019-03-03T18:20:05.200Z,84.40
2019-03-03T18:22:35.484Z,84.60
2019-03-03T18:25:06.680Z,84.10
2019-03-03T18:27:36.876Z,83.80
2019-03-03T18:30:18.903Z,83.40
2019-03-03T18:32:49.103Z,83.90
2019-03-03T18:35:19.527Z,83.80
2019-03-03T18:37:50.208Z,83.80
2019-03-03T18:40:24.858Z,84.10
2019-03-03T18:42:55.114Z,84.20
2019-03-03T18:45:25.912Z,84.20
2019-03-03T18:47:56.150Z,84.10
2019-03-03T18:50:28.157Z,83.80
2019-03-03T18:52:59.963Z,84.20
2019-03-03T18:55:30.345Z,84.30
2019-03-03T18:58:00.653Z,84.00
2019-03-03T19:00:32.105Z,84.10
2019-03-03T19:03:02.671Z,83.80
2019-03-03T19:05:33.143Z,84.40
2019-03-03T19:08:03.429Z,84.10
2019-03-03T19:10:39.154Z,84.50
2019-03-03T19:13:09.413Z,84.50
2019-03-03T19:15:41.029Z,84.80
2019-03-03T19:18:11.332Z,84.90
2019-03-03T19:20:41.679Z,84.60
2019-03-03T19:23:11.986Z,84.90
2019-03-03T19:25:43.164Z,85.10
2019-03-03T19:28:13.500Z,84.60
2019-03-03T19:30:43.761Z,84.80
2019-03-03T19:33:33.632Z,84.50
2019-03-03T19:36:03.901Z,84.50
2019-03-03T19:38:34.118Z,85.10
2019-03-03T19:41:05.174Z,85.10
2019-03-03T19:43:35.584Z,84.90
2019-03-03T19:46:09.359Z,85.40
2019-03-03T19:48:39.586Z,85.40
2019-03-03T19:51:09.856Z,85.40
2019-03-03T19:53:40.272Z,85.20
2019-03-03T19:56:10.573Z,84.80
2019-03-03T19:58:40.881Z,84.90
2019-03-03T20:01:11.194Z,84.60
2019-03-03T20:03:41.497Z,84.90
2019-03-03T20:06:11.761Z,84.90
2019-03-03T20:08:42.891Z,84.60
2019-03-03T20:11:13.600Z,84.90
2019-03-03T20:13:43.957Z,84.60
2019-03-03T20:16:14.159Z,84.60
2019-03-03T20:18:44.495Z,84.50
2019-03-03T20:21:14.753Z,84.60
2019-03-03T20:23:45.078Z,84.20
2019-03-03T20:26:15.357Z,84.40
2019-03-03T20:28:45.867Z,84.20
2019-03-03T20:31:16.972Z,84.10
2019-03-03T20:33:47.207Z,84.60
2019-03-03T20:36:17.483Z,84.30
2019-03-03T20:38:48.209Z,84.40
2019-03-03T20:41:18.439Z,84.30
2019-03-03T20:43:48.747Z,83.80
2019-03-03T20:46:20.136Z,84.50
2019-03-03T20:48:54.282Z,84.40
2019-03-03T20:51:24.556Z,84.50
2019-03-03T20:53:54.920Z,84.90
2019-03-03T20:56:25.680Z,84.80
2019-03-03T20:58:56.102Z,85.00
2019-03-03T21:01:26.392Z,84.90
2019-03-03T21:03:56.732Z,85.00
2019-03-03T21:06:29.324Z,84.90
2019-03-03T21:08:59.636Z,84.80
2019-03-03T21:11:33.689Z,85.70
2019-03-03T21:14:04.033Z,85.30
2019-03-03T21:16:34.295Z,85.60
2019-03-03T21:19:04.731Z,85.50
2019-03-03T21:21:35.007Z,85.70
2019-03-03T21:24:05.343Z,85.90
2019-03-03T21:26:35.608Z,86.00
2019-03-03T21:29:06.475Z,86.10
2019-03-03T21:31:36.717Z,86.50
2019-03-03T21:34:07.191Z,86.10
2019-03-03T21:36:37.473Z,86.20
2019-03-03T21:39:08.399Z,86.50
2019-03-03T21:41:40.127Z,86.20
2019-03-03T21:44:10.478Z,86.20
2019-03-03T21:46:41.041Z,86.40
2019-03-03T21:49:11.775Z,86.70
2019-03-03T21:51:42.306Z,86.90
2019-03-03T21:54:12.632Z,87.60
2019-03-03T21:56:42.908Z,86.90
2019-03-03T21:59:13.798Z,86.80
2019-03-03T22:01:44.025Z,86.70
2019-03-03T22:04:14.384Z,86.60
2019-03-03T22:06:44.688Z,86.60
2019-03-03T22:09:15.345Z,86.80
2019-03-03T22:11:47.465Z,86.80
2019-03-03T22:14:18.528Z,86.80
2019-03-03T22:16:50.444Z,87.30
2019-03-03T22:19:22.087Z,86.70
2019-03-03T22:21:52.995Z,86.70
2019-03-03T22:24:23.354Z,86.60
2019-03-03T22:26:54.087Z,86.60
2019-03-03T22:29:24.373Z,86.40
2019-03-03T22:31:55.400Z,86.20
2019-03-03T22:34:25.632Z,86.20
2019-03-03T22:36:55.867Z,85.90
2019-03-03T22:39:26.510Z,85.90
2019-03-03T22:41:57.100Z,86.10
2019-03-03T22:44:27.376Z,86.20
2019-03-03T22:46:57.670Z,86.30
2019-03-03T22:49:28.127Z,86.50
2019-03-03T22:51:58.352Z,86.50
2019-03-03T22:54:29.219Z,86.60
2019-03-03T22:56:59.347Z,87.00
2019-03-03T22:59:29.652Z,86.80
2019-03-03T23:01:59.885Z,86.90
2019-03-03T23:04:45.409Z,86.80
2019-03-03T23:07:36.853Z,86.90
2019-03-03T23:10:22.400Z,86.80
2019-03-03T23:13:13.763Z,86.90
2019-03-03T23:16:05.495Z,87.00
2019-03-03T23:19:01.207Z,87.20
2019-03-03T23:21:42.971Z,87.30
2019-03-03T23:24:42.102Z,87.40
2019-03-03T23:27:12.359Z,87.80
2019-03-03T23:29:42.636Z,88.00
2019-03-03T23:32:12.840Z,88.00
2019-03-03T23:34:43.187Z,88.00
2019-03-03T23:37:13.465Z,88.30
2019-03-03T23:39:43.807Z,88.20
2019-03-03T23:42:14.914Z,88.50
2019-03-03T23:44:46.423Z,88.80
2019-03-03T23:47:16.612Z,88.80
2019-03-03T23:49:46.952Z,88.80
2019-03-03T23:52:17.242Z,88.90
2019-03-03T23:54:47.572Z,89.00
2019-03-03T23:57:19.340Z,89.20
2019-03-03T23:59:49.655Z,89.40
